sensor_id;sensor_type;location;lat;lon;timestamp;temperature;humidity
65378;SHT31;51982;51.042;13.806;2022-07-18T00:01:28;18.73;54.63
65378;SHT31;51982;51.042;13.806;2022-07-18T00:03:53;18.69;54.70
65378;SHT31;51982;51.042;13.806;2022-07-18T00:06:18;18.66;54.73
65378;SHT31;51982;51.042;13.806;2022-07-18T00:08:43;18.64;54.85
65378;SHT31;51982;51.042;13.806;2022-07-18T00:11:09;18.51;54.96
65378;SHT31;51982;51.042;13.806;2022-07-18T00:13:34;18.52;54.99
65378;SHT31;51982;51.042;13.806;2022-07-18T00:15:59;18.48;55.13
65378;SHT31;51982;51.042;13.806;2022-07-18T00:18:24;18.41;55.37
65378;SHT31;51982;51.042;13.806;2022-07-18T00:20:50;18.38;55.60
65378;SHT31;51982;51.042;13.806;2022-07-18T00:23:15;18.34;55.75
65378;SHT31;51982;51.042;13.806;2022-07-18T00:25:40;18.32;55.79
65378;SHT31;51982;51.042;13.806;2022-07-18T00:28:05;18.35;55.80
65378;SHT31;51982;51.042;13.806;2022-07-18T00:30:30;18.32;55.81
65378;SHT31;51982;51.042;13.806;2022-07-18T00:32:56;18.31;55.77
65378;SHT31;51982;51.042;13.806;2022-07-18T00:35:21;18.31;55.79
65378;SHT31;51982;51.042;13.806;2022-07-18T00:37:46;18.28;55.85
65378;SHT31;51982;51.042;13.806;2022-07-18T00:40:12;18.27;55.86
65378;SHT31;51982;51.042;13.806;2022-07-18T00:42:37;18.23;55.94
65378;SHT31;51982;51.042;13.806;2022-07-18T00:45:02;18.14;56.10
65378;SHT31;51982;51.042;13.806;2022-07-18T00:47:28;18.13;56.06
65378;SHT31;51982;51.042;13.806;2022-07-18T00:49:53;18.08;56.07
65378;SHT31;51982;51.042;13.806;2022-07-18T00:52:19;18.05;56.17
65378;SHT31;51982;51.042;13.806;2022-07-18T00:54:44;18.00;56.31
65378;SHT31;51982;51.042;13.806;2022-07-18T00:57:09;17.97;56.47
65378;SHT31;51982;51.042;13.806;2022-07-18T00:59:35;17.97;56.51
65378;SHT31;51982;51.042;13.806;2022-07-18T01:02:19;17.93;56.58
65378;SHT31;51982;51.042;13.806;2022-07-18T01:04:44;17.89;56.70
65378;SHT31;51982;51.042;13.806;2022-07-18T01:07:10;17.89;56.78
65378;SHT31;51982;51.042;13.806;2022-07-18T01:09:35;17.84;56.86
65378;SHT31;51982;51.042;13.806;2022-07-18T01:12:02;17.77;57.01
65378;SHT31;51982;51.042;13.806;2022-07-18T01:14:27;17.77;57.00
65378;SHT31;51982;51.042;13.806;2022-07-18T01:16:52;17.73;57.17
65378;SHT31;51982;51.042;13.806;2022-07-18T01:19:18;17.70;57.21
65378;SHT31;51982;51.042;13.806;2022-07-18T01:21:43;17.63;57.42
65378;SHT31;51982;51.042;13.806;2022-07-18T01:24:08;17.60;57.55
65378;SHT31;51982;51.042;13.806;2022-07-18T01:26:33;17.56;57.65
65378;SHT31;51982;51.042;13.806;2022-07-18T01:28:59;17.52;57.81
65378;SHT31;51982;51.042;13.806;2022-07-18T01:31:24;17.50;57.99
65378;SHT31;51982;51.042;13.806;2022-07-18T01:33:53;17.45;58.17
65378;SHT31;51982;51.042;13.806;2022-07-18T01:36:19;17.46;58.03
65378;SHT31;51982;51.042;13.806;2022-07-18T01:38:44;17.45;58.15
65378;SHT31;51982;51.042;13.806;2022-07-18T01:41:09;17.42;58.16
65378;SHT31;51982;51.042;13.806;2022-07-18T01:43:39;17.39;58.34
65378;SHT31;51982;51.042;13.806;2022-07-18T01:46:05;17.36;58.26
65378;SHT31;51982;51.042;13.806;2022-07-18T01:48:30;17.35;58.33
65378;SHT31;51982;51.042;13.806;2022-07-18T01:50:56;17.33;58.38
65378;SHT31;51982;51.042;13.806;2022-07-18T01:53:21;17.32;58.46
65378;SHT31;51982;51.042;13.806;2022-07-18T01:55:46;17.30;58.58
65378;SHT31;51982;51.042;13.806;2022-07-18T01:58:12;17.26;58.65
65378;SHT31;51982;51.042;13.806;2022-07-18T02:00:38;17.23;58.82
65378;SHT31;51982;51.042;13.806;2022-07-18T02:03:03;17.22;58.85
65378;SHT31;51982;51.042;13.806;2022-07-18T02:05:28;17.18;58.89
65378;SHT31;51982;51.042;13.806;2022-07-18T02:07:53;17.15;58.95
65378;SHT31;51982;51.042;13.806;2022-07-18T02:10:20;17.14;59.04
65378;SHT31;51982;51.042;13.806;2022-07-18T02:12:46;17.11;59.02
65378;SHT31;51982;51.042;13.806;2022-07-18T02:15:12;17.02;59.15
65378;SHT31;51982;51.042;13.806;2022-07-18T02:17:38;17.04;59.22
65378;SHT31;51982;51.042;13.806;2022-07-18T02:20:05;17.01;59.31
65378;SHT31;51982;51.042;13.806;2022-07-18T02:22:31;16.99;59.37
65378;SHT31;51982;51.042;13.806;2022-07-18T02:24:56;16.96;59.45
65378;SHT31;51982;51.042;13.806;2022-07-18T02:27:21;16.95;59.46
65378;SHT31;51982;51.042;13.806;2022-07-18T02:29:46;16.94;59.53
65378;SHT31;51982;51.042;13.806;2022-07-18T02:32:13;16.92;59.58
65378;SHT31;51982;51.042;13.806;2022-07-18T02:34:38;16.91;59.62
65378;SHT31;51982;51.042;13.806;2022-07-18T02:37:03;16.85;59.62
65378;SHT31;51982;51.042;13.806;2022-07-18T02:39:29;16.82;59.76
65378;SHT31;51982;51.042;13.806;2022-07-18T02:41:55;16.81;59.81
65378;SHT31;51982;51.042;13.806;2022-07-18T02:44:20;16.78;59.83
65378;SHT31;51982;51.042;13.806;2022-07-18T02:46:46;16.75;59.95
65378;SHT31;51982;51.042;13.806;2022-07-18T02:49:11;16.69;60.09
65378;SHT31;51982;51.042;13.806;2022-07-18T02:51:59;16.68;60.10
65378;SHT31;51982;51.042;13.806;2022-07-18T02:54:25;16.65;60.14
65378;SHT31;51982;51.042;13.806;2022-07-18T02:56:51;16.63;60.26
65378;SHT31;51982;51.042;13.806;2022-07-18T02:59:17;16.63;60.40
65378;SHT31;51982;51.042;13.806;2022-07-18T03:01:42;16.60;60.50
65378;SHT31;51982;51.042;13.806;2022-07-18T03:04:07;16.56;60.63
65378;SHT31;51982;51.042;13.806;2022-07-18T03:06:33;16.56;60.60
65378;SHT31;51982;51.042;13.806;2022-07-18T03:08:58;16.54;60.67
65378;SHT31;51982;51.042;13.806;2022-07-18T03:11:23;16.54;60.75
65378;SHT31;51982;51.042;13.806;2022-07-18T03:13:49;16.53;60.86
65378;SHT31;51982;51.042;13.806;2022-07-18T03:16:14;16.43;61.05
65378;SHT31;51982;51.042;13.806;2022-07-18T03:18:39;16.40;61.11
65378;SHT31;51982;51.042;13.806;2022-07-18T03:21:04;16.37;61.14
65378;SHT31;51982;51.042;13.806;2022-07-18T03:23:30;16.37;61.24
65378;SHT31;51982;51.042;13.806;2022-07-18T03:25:55;16.31;61.39
65378;SHT31;51982;51.042;13.806;2022-07-18T03:28:20;16.26;61.48
65378;SHT31;51982;51.042;13.806;2022-07-18T03:30:45;16.26;61.46
65378;SHT31;51982;51.042;13.806;2022-07-18T03:33:10;16.26;61.50
65378;SHT31;51982;51.042;13.806;2022-07-18T03:35:36;16.24;61.44
65378;SHT31;51982;51.042;13.806;2022-07-18T03:38:01;16.20;61.46
65378;SHT31;51982;51.042;13.806;2022-07-18T03:40:26;16.23;61.52
65378;SHT31;51982;51.042;13.806;2022-07-18T03:42:51;16.24;61.41
65378;SHT31;51982;51.042;13.806;2022-07-18T03:45:17;16.23;61.37
65378;SHT31;51982;51.042;13.806;2022-07-18T03:47:42;16.20;61.39
65378;SHT31;51982;51.042;13.806;2022-07-18T03:50:07;16.18;61.47
65378;SHT31;51982;51.042;13.806;2022-07-18T03:52:33;16.16;61.55
65378;SHT31;51982;51.042;13.806;2022-07-18T03:54:58;16.09;61.77
65378;SHT31;51982;51.042;13.806;2022-07-18T03:57:26;16.09;61.79
65378;SHT31;51982;51.042;13.806;2022-07-18T03:59:51;16.12;61.86
65378;SHT31;51982;51.042;13.806;2022-07-18T04:02:17;16.12;61.86
65378;SHT31;51982;51.042;13.806;2022-07-18T04:04:42;16.13;61.86
65378;SHT31;51982;51.042;13.806;2022-07-18T04:07:07;16.14;61.79
65378;SHT31;51982;51.042;13.806;2022-07-18T04:09:32;16.17;61.86
65378;SHT31;51982;51.042;13.806;2022-07-18T04:11:57;16.18;61.82
65378;SHT31;51982;51.042;13.806;2022-07-18T04:14:23;16.23;61.84
65378;SHT31;51982;51.042;13.806;2022-07-18T04:16:48;16.24;61.93
65378;SHT31;51982;51.042;13.806;2022-07-18T04:19:13;16.24;62.00
65378;SHT31;51982;51.042;13.806;2022-07-18T04:21:39;16.24;61.97
65378;SHT31;51982;51.042;13.806;2022-07-18T04:24:04;16.30;61.88
65378;SHT31;51982;51.042;13.806;2022-07-18T04:26:30;16.23;61.98
65378;SHT31;51982;51.042;13.806;2022-07-18T04:28:55;16.21;61.98
65378;SHT31;51982;51.042;13.806;2022-07-18T04:31:20;16.21;61.99
65378;SHT31;51982;51.042;13.806;2022-07-18T04:33:45;16.21;61.95
65378;SHT31;51982;51.042;13.806;2022-07-18T04:36:11;16.28;61.82
65378;SHT31;51982;51.042;13.806;2022-07-18T04:38:36;16.34;61.76
65378;SHT31;51982;51.042;13.806;2022-07-18T04:41:05;16.36;61.70
65378;SHT31;51982;51.042;13.806;2022-07-18T04:43:31;16.43;61.61
65378;SHT31;51982;51.042;13.806;2022-07-18T04:45:57;16.43;61.62
65378;SHT31;51982;51.042;13.806;2022-07-18T04:48:22;16.41;61.72
65378;SHT31;51982;51.042;13.806;2022-07-18T04:50:47;16.43;61.79
65378;SHT31;51982;51.042;13.806;2022-07-18T04:53:13;16.51;61.72
65378;SHT31;51982;51.042;13.806;2022-07-18T04:55:38;16.54;61.76
65378;SHT31;51982;51.042;13.806;2022-07-18T04:58:03;16.56;61.91
65378;SHT31;51982;51.042;13.806;2022-07-18T05:00:29;16.58;61.84
65378;SHT31;51982;51.042;13.806;2022-07-18T05:02:56;16.58;61.94
65378;SHT31;51982;51.042;13.806;2022-07-18T05:05:22;16.58;61.79
65378;SHT31;51982;51.042;13.806;2022-07-18T05:07:51;16.71;61.63
65378;SHT31;51982;51.042;13.806;2022-07-18T05:10:18;16.82;61.26
65378;SHT31;51982;51.042;13.806;2022-07-18T05:12:47;16.85;61.31
65378;SHT31;51982;51.042;13.806;2022-07-18T05:15:14;16.82;61.50
65378;SHT31;51982;51.042;13.806;2022-07-18T05:17:40;16.84;61.58
65378;SHT31;51982;51.042;13.806;2022-07-18T05:20:07;16.85;61.49
65378;SHT31;51982;51.042;13.806;2022-07-18T05:22:33;16.95;61.46
65378;SHT31;51982;51.042;13.806;2022-07-18T05:24:59;16.91;61.54
65378;SHT31;51982;51.042;13.806;2022-07-18T05:27:24;16.98;61.45
65378;SHT31;51982;51.042;13.806;2022-07-18T05:29:49;17.02;61.54
65378;SHT31;51982;51.042;13.806;2022-07-18T05:32:15;17.04;61.47
65378;SHT31;51982;51.042;13.806;2022-07-18T05:34:40;17.11;61.32
65378;SHT31;51982;51.042;13.806;2022-07-18T05:37:05;17.15;61.13
65378;SHT31;51982;51.042;13.806;2022-07-18T05:39:31;17.18;61.07
65378;SHT31;51982;51.042;13.806;2022-07-18T05:41:56;17.18;61.04
65378;SHT31;51982;51.042;13.806;2022-07-18T05:44:21;17.21;60.92
65378;SHT31;51982;51.042;13.806;2022-07-18T05:46:47;17.25;60.79
65378;SHT31;51982;51.042;13.806;2022-07-18T05:49:13;17.33;60.68
65378;SHT31;51982;51.042;13.806;2022-07-18T05:51:39;17.47;60.50
65378;SHT31;51982;51.042;13.806;2022-07-18T05:54:05;17.66;60.29
65378;SHT31;51982;51.042;13.806;2022-07-18T05:56:30;17.67;60.30
65378;SHT31;51982;51.042;13.806;2022-07-18T05:58:55;17.67;60.12
65378;SHT31;51982;51.042;13.806;2022-07-18T06:01:20;17.66;60.21
65378;SHT31;51982;51.042;13.806;2022-07-18T06:03:46;17.69;60.05
65378;SHT31;51982;51.042;13.806;2022-07-18T06:06:13;17.74;59.88
65378;SHT31;51982;51.042;13.806;2022-07-18T06:08:38;17.90;59.67
65378;SHT31;51982;51.042;13.806;2022-07-18T06:11:03;18.00;59.50
65378;SHT31;51982;51.042;13.806;2022-07-18T06:13:32;19.00;57.56
65378;SHT31;51982;51.042;13.806;2022-07-18T06:15:57;18.69;57.92
65378;SHT31;51982;51.042;13.806;2022-07-18T06:18:22;18.48;57.94
65378;SHT31;51982;51.042;13.806;2022-07-18T06:20:47;18.49;57.89
65378;SHT31;51982;51.042;13.806;2022-07-18T06:23:12;18.68;57.34
65378;SHT31;51982;51.042;13.806;2022-07-18T06:25:38;18.62;57.48
65378;SHT31;51982;51.042;13.806;2022-07-18T06:28:03;18.77;57.15
65378;SHT31;51982;51.042;13.806;2022-07-18T06:30:28;18.73;57.00
65378;SHT31;51982;51.042;13.806;2022-07-18T06:32:53;18.85;56.65
65378;SHT31;51982;51.042;13.806;2022-07-18T06:35:19;18.88;56.53
65378;SHT31;51982;51.042;13.806;2022-07-18T06:37:44;18.89;56.49
65378;SHT31;51982;51.042;13.806;2022-07-18T06:40:10;18.93;56.39
65378;SHT31;51982;51.042;13.806;2022-07-18T06:42:35;19.02;56.10
65378;SHT31;51982;51.042;13.806;2022-07-18T06:45:00;19.05;55.87
65378;SHT31;51982;51.042;13.806;2022-07-18T06:47:25;19.06;55.89
65378;SHT31;51982;51.042;13.806;2022-07-18T06:49:51;19.10;55.79
65378;SHT31;51982;51.042;13.806;2022-07-18T06:52:16;19.19;55.65
65378;SHT31;51982;51.042;13.806;2022-07-18T06:54:42;19.30;55.41
65378;SHT31;51982;51.042;13.806;2022-07-18T06:57:08;20.14;53.99
65378;SHT31;51982;51.042;13.806;2022-07-18T06:59:35;20.87;52.30
65378;SHT31;51982;51.042;13.806;2022-07-18T07:02:00;20.48;53.09
65378;SHT31;51982;51.042;13.806;2022-07-18T07:04:25;20.25;53.40
65378;SHT31;51982;51.042;13.806;2022-07-18T07:06:50;20.63;53.26
65378;SHT31;51982;51.042;13.806;2022-07-18T07:09:16;24.30;47.41
65378;SHT31;51982;51.042;13.806;2022-07-18T07:11:41;29.12;40.33
65378;SHT31;51982;51.042;13.806;2022-07-18T07:14:06;31.64;37.25
65378;SHT31;51982;51.042;13.806;2022-07-18T07:16:31;33.23;35.67
65378;SHT31;51982;51.042;13.806;2022-07-18T07:18:56;34.10;34.73
65378;SHT31;51982;51.042;13.806;2022-07-18T07:21:22;34.73;34.06
65378;SHT31;51982;51.042;13.806;2022-07-18T07:23:47;33.25;35.50
65378;SHT31;51982;51.042;13.806;2022-07-18T07:26:12;30.63;38.83
65378;SHT31;51982;51.042;13.806;2022-07-18T07:28:37;31.95;37.13
65378;SHT31;51982;51.042;13.806;2022-07-18T07:31:03;32.39;36.35
65378;SHT31;51982;51.042;13.806;2022-07-18T07:33:28;29.84;39.36
65378;SHT31;51982;51.042;13.806;2022-07-18T07:35:53;28.24;41.57
65378;SHT31;51982;51.042;13.806;2022-07-18T07:38:18;27.22;42.57
65378;SHT31;51982;51.042;13.806;2022-07-18T07:40:45;26.47;43.20
65378;SHT31;51982;51.042;13.806;2022-07-18T07:43:13;25.92;43.68
65378;SHT31;51982;51.042;13.806;2022-07-18T07:45:39;25.47;43.60
65378;SHT31;51982;51.042;13.806;2022-07-18T07:48:05;25.07;43.56
65378;SHT31;51982;51.042;13.806;2022-07-18T07:50:31;24.80;43.76
65378;SHT31;51982;51.042;13.806;2022-07-18T07:52:57;24.53;43.98
65378;SHT31;51982;51.042;13.806;2022-07-18T07:55:23;24.33;44.14
65378;SHT31;51982;51.042;13.806;2022-07-18T07:57:49;24.16;44.44
65378;SHT31;51982;51.042;13.806;2022-07-18T08:00:14;24.06;44.51
65378;SHT31;51982;51.042;13.806;2022-07-18T08:02:50;23.93;44.19
65378;SHT31;51982;51.042;13.806;2022-07-18T08:05:16;23.88;44.65
65378;SHT31;51982;51.042;13.806;2022-07-18T08:07:41;23.73;44.58
65378;SHT31;51982;51.042;13.806;2022-07-18T08:10:07;23.62;44.21
65378;SHT31;51982;51.042;13.806;2022-07-18T08:12:32;23.57;44.48
65378;SHT31;51982;51.042;13.806;2022-07-18T08:14:57;23.51;44.44
65378;SHT31;51982;51.042;13.806;2022-07-18T08:17:23;23.38;44.12
65378;SHT31;51982;51.042;13.806;2022-07-18T08:19:48;23.34;44.12
65378;SHT31;51982;51.042;13.806;2022-07-18T08:22:13;23.29;44.19
65378;SHT31;51982;51.042;13.806;2022-07-18T08:24:38;23.31;44.25
65378;SHT31;51982;51.042;13.806;2022-07-18T08:27:03;23.29;44.38
65378;SHT31;51982;51.042;13.806;2022-07-18T08:29:29;23.28;44.34
65378;SHT31;51982;51.042;13.806;2022-07-18T08:31:54;23.34;44.34
65378;SHT31;51982;51.042;13.806;2022-07-18T08:34:19;23.29;44.39
65378;SHT31;51982;51.042;13.806;2022-07-18T08:36:44;23.29;44.45
65378;SHT31;51982;51.042;13.806;2022-07-18T08:39:10;23.29;44.54
65378;SHT31;51982;51.042;13.806;2022-07-18T08:41:35;23.32;44.37
65378;SHT31;51982;51.042;13.806;2022-07-18T08:44:02;23.32;43.95
65378;SHT31;51982;51.042;13.806;2022-07-18T08:46:27;23.34;44.12
65378;SHT31;51982;51.042;13.806;2022-07-18T08:48:53;23.34;43.89
65378;SHT31;51982;51.042;13.806;2022-07-18T08:51:20;23.37;44.03
65378;SHT31;51982;51.042;13.806;2022-07-18T08:53:47;23.38;44.05
65378;SHT31;51982;51.042;13.806;2022-07-18T08:56:13;23.41;44.07
65378;SHT31;51982;51.042;13.806;2022-07-18T08:58:38;23.42;43.93
65378;SHT31;51982;51.042;13.806;2022-07-18T09:01:04;23.45;43.82
65378;SHT31;51982;51.042;13.806;2022-07-18T09:03:29;23.48;43.67
65378;SHT31;51982;51.042;13.806;2022-07-18T09:08:29;23.54;43.77
65378;SHT31;51982;51.042;13.806;2022-07-18T09:10:58;23.55;43.67
65378;SHT31;51982;51.042;13.806;2022-07-18T09:13:25;23.59;43.68
65378;SHT31;51982;51.042;13.806;2022-07-18T09:18:31;23.70;43.08
65378;SHT31;51982;51.042;13.806;2022-07-18T09:21:01;23.70;43.07
65378;SHT31;51982;51.042;13.806;2022-07-18T09:23:31;23.76;42.95
65378;SHT31;51982;51.042;13.806;2022-07-18T09:25:56;23.76;42.90
65378;SHT31;51982;51.042;13.806;2022-07-18T09:28:22;23.79;42.84
65378;SHT31;51982;51.042;13.806;2022-07-18T09:30:47;23.88;42.35
65378;SHT31;51982;51.042;13.806;2022-07-18T09:33:12;23.92;42.37
65378;SHT31;51982;51.042;13.806;2022-07-18T09:35:45;23.96;42.05
65378;SHT31;51982;51.042;13.806;2022-07-18T09:38:16;24.00;42.66
65378;SHT31;51982;51.042;13.806;2022-07-18T09:40:44;24.06;42.57
65378;SHT31;51982;51.042;13.806;2022-07-18T09:43:15;24.16;42.18
65378;SHT31;51982;51.042;13.806;2022-07-18T09:45:50;24.23;42.44
65378;SHT31;51982;51.042;13.806;2022-07-18T09:48:26;24.31;42.18
65378;SHT31;51982;51.042;13.806;2022-07-18T09:51:04;24.34;41.69
65378;SHT31;51982;51.042;13.806;2022-07-18T09:53:40;24.36;41.40
65378;SHT31;51982;51.042;13.806;2022-07-18T09:56:08;24.40;42.20
65378;SHT31;51982;51.042;13.806;2022-07-18T09:58:42;24.43;41.87
65378;SHT31;51982;51.042;13.806;2022-07-18T10:01:14;24.50;41.94
65378;SHT31;51982;51.042;13.806;2022-07-18T10:03:40;24.60;41.89
65378;SHT31;51982;51.042;13.806;2022-07-18T10:06:05;24.65;41.80
65378;SHT31;51982;51.042;13.806;2022-07-18T10:08:32;24.72;41.47
65378;SHT31;51982;51.042;13.806;2022-07-18T10:10:59;24.78;41.42
65378;SHT31;51982;51.042;13.806;2022-07-18T10:13:26;24.87;41.32
65378;SHT31;51982;51.042;13.806;2022-07-18T10:15:52;24.94;41.30
65378;SHT31;51982;51.042;13.806;2022-07-18T10:18:19;24.98;41.44
65378;SHT31;51982;51.042;13.806;2022-07-18T10:20:47;25.05;41.65
65378;SHT31;51982;51.042;13.806;2022-07-18T10:23:21;25.11;41.20
65378;SHT31;51982;51.042;13.806;2022-07-18T10:31:20;25.19;40.64
65378;SHT31;51982;51.042;13.806;2022-07-18T10:33:46;25.25;40.48
65378;SHT31;51982;51.042;13.806;2022-07-18T10:36:15;25.29;40.76
65378;SHT31;51982;51.042;13.806;2022-07-18T10:39:09;25.31;40.17
65378;SHT31;51982;51.042;13.806;2022-07-18T11:00:14;25.83;40.20
65378;SHT31;51982;51.042;13.806;2022-07-18T11:02:43;25.89;40.17
65378;SHT31;51982;51.042;13.806;2022-07-18T11:21:24;26.92;38.86
65378;SHT31;51982;51.042;13.806;2022-07-18T11:23:52;27.02;39.61
65378;SHT31;51982;51.042;13.806;2022-07-18T11:26:20;27.15;39.46
65378;SHT31;51982;51.042;13.806;2022-07-18T11:28:46;27.20;39.38
65378;SHT31;51982;51.042;13.806;2022-07-18T11:31:13;27.29;39.49
65378;SHT31;51982;51.042;13.806;2022-07-18T11:33:43;27.33;39.41
65378;SHT31;51982;51.042;13.806;2022-07-18T11:36:11;27.36;39.04
65378;SHT31;51982;51.042;13.806;2022-07-18T11:38:39;27.45;39.03
65378;SHT31;51982;51.042;13.806;2022-07-18T11:41:05;27.47;38.86
65378;SHT31;51982;51.042;13.806;2022-07-18T11:43:30;27.54;39.00
65378;SHT31;51982;51.042;13.806;2022-07-18T11:46:07;27.60;38.52
65378;SHT31;51982;51.042;13.806;2022-07-18T11:48:34;27.66;38.58
65378;SHT31;51982;51.042;13.806;2022-07-18T11:51:00;27.76;38.52
65378;SHT31;51982;51.042;13.806;2022-07-18T11:53:26;27.76;38.26
65378;SHT31;51982;51.042;13.806;2022-07-18T11:55:55;27.84;38.37
65378;SHT31;51982;51.042;13.806;2022-07-18T11:58:21;27.91;38.30
65378;SHT31;51982;51.042;13.806;2022-07-18T12:00:47;27.94;38.21
65378;SHT31;51982;51.042;13.806;2022-07-18T12:03:18;27.97;38.05
65378;SHT31;51982;51.042;13.806;2022-07-18T12:05:50;28.02;37.83
65378;SHT31;51982;51.042;13.806;2022-07-18T12:19:00;28.34;37.48
65378;SHT31;51982;51.042;13.806;2022-07-18T12:21:54;28.45;37.36
65378;SHT31;51982;51.042;13.806;2022-07-18T12:24:34;28.48;37.15
65378;SHT31;51982;51.042;13.806;2022-07-18T12:32:56;28.63;36.56
65378;SHT31;51982;51.042;13.806;2022-07-18T12:35:30;28.71;37.33
65378;SHT31;51982;51.042;13.806;2022-07-18T12:43:13;28.82;37.29
65378;SHT31;51982;51.042;13.806;2022-07-18T12:45:40;28.82;37.10
65378;SHT31;51982;51.042;13.806;2022-07-18T12:48:08;28.82;36.99
65378;SHT31;51982;51.042;13.806;2022-07-18T12:50:33;28.88;37.06
65378;SHT31;51982;51.042;13.806;2022-07-18T12:52:59;28.86;36.82
65378;SHT31;51982;51.042;13.806;2022-07-18T12:55:25;28.95;37.03
65378;SHT31;51982;51.042;13.806;2022-07-18T12:57:50;28.95;36.92
65378;SHT31;51982;51.042;13.806;2022-07-18T13:00:16;29.04;36.92
65378;SHT31;51982;51.042;13.806;2022-07-18T13:02:45;29.13;36.74
65378;SHT31;51982;51.042;13.806;2022-07-18T13:05:11;29.23;36.83
65378;SHT31;51982;51.042;13.806;2022-07-18T13:07:36;29.29;36.89
65378;SHT31;51982;51.042;13.806;2022-07-18T13:10:02;29.27;36.76
65378;SHT31;51982;51.042;13.806;2022-07-18T13:12:27;29.27;36.75
65378;SHT31;51982;51.042;13.806;2022-07-18T13:14:53;29.22;36.85
65378;SHT31;51982;51.042;13.806;2022-07-18T13:17:18;29.17;36.63
65378;SHT31;51982;51.042;13.806;2022-07-18T13:19:43;29.24;36.53
65378;SHT31;51982;51.042;13.806;2022-07-18T13:22:10;29.33;36.46
65378;SHT31;51982;51.042;13.806;2022-07-18T13:24:35;29.47;36.49
65378;SHT31;51982;51.042;13.806;2022-07-18T13:27:05;29.57;36.59
65378;SHT31;51982;51.042;13.806;2022-07-18T13:29:30;29.64;36.76
65378;SHT31;51982;51.042;13.806;2022-07-18T13:31:56;29.67;36.48
65378;SHT31;51982;51.042;13.806;2022-07-18T13:34:21;29.67;36.51
65378;SHT31;51982;51.042;13.806;2022-07-18T13:36:49;29.67;36.48
65378;SHT31;51982;51.042;13.806;2022-07-18T13:39:14;29.67;36.64
65378;SHT31;51982;51.042;13.806;2022-07-18T13:41:39;29.67;36.56
65378;SHT31;51982;51.042;13.806;2022-07-18T13:44:04;29.60;36.54
65378;SHT31;51982;51.042;13.806;2022-07-18T13:46:30;29.55;36.41
65378;SHT31;51982;51.042;13.806;2022-07-18T13:48:55;29.58;36.50
65378;SHT31;51982;51.042;13.806;2022-07-18T13:51:20;29.60;36.49
65378;SHT31;51982;51.042;13.806;2022-07-18T13:53:46;29.60;36.57
65378;SHT31;51982;51.042;13.806;2022-07-18T13:56:11;29.58;36.46
65378;SHT31;51982;51.042;13.806;2022-07-18T13:58:36;29.53;36.47
65378;SHT31;51982;51.042;13.806;2022-07-18T14:01:02;29.47;36.51
65378;SHT31;51982;51.042;13.806;2022-07-18T14:03:27;29.46;36.54
65378;SHT31;51982;51.042;13.806;2022-07-18T14:05:52;29.49;36.55
65378;SHT31;51982;51.042;13.806;2022-07-18T14:08:18;29.55;36.75
65378;SHT31;51982;51.042;13.806;2022-07-18T14:10:43;29.60;36.61
65378;SHT31;51982;51.042;13.806;2022-07-18T14:13:09;29.61;36.59
65378;SHT31;51982;51.042;13.806;2022-07-18T14:15:34;29.58;36.38
65378;SHT31;51982;51.042;13.806;2022-07-18T14:17:59;29.54;36.43
65378;SHT31;51982;51.042;13.806;2022-07-18T14:20:25;29.53;36.57
65378;SHT31;51982;51.042;13.806;2022-07-18T14:22:51;29.53;36.45
65378;SHT31;51982;51.042;13.806;2022-07-18T14:25:17;29.53;36.41
65378;SHT31;51982;51.042;13.806;2022-07-18T14:27:43;29.60;36.37
65378;SHT31;51982;51.042;13.806;2022-07-18T14:30:11;29.63;36.37
65378;SHT31;51982;51.042;13.806;2022-07-18T14:32:37;29.63;36.31
65378;SHT31;51982;51.042;13.806;2022-07-18T14:35:03;29.61;36.33
65378;SHT31;51982;51.042;13.806;2022-07-18T14:37:32;29.64;36.19
65378;SHT31;51982;51.042;13.806;2022-07-18T14:39:57;29.68;36.32
65378;SHT31;51982;51.042;13.806;2022-07-18T14:42:23;29.70;36.48
65378;SHT31;51982;51.042;13.806;2022-07-18T14:44:49;29.74;36.26
65378;SHT31;51982;51.042;13.806;2022-07-18T14:47:14;29.74;36.25
65378;SHT31;51982;51.042;13.806;2022-07-18T14:49:39;29.80;36.24
65378;SHT31;51982;51.042;13.806;2022-07-18T14:52:05;29.84;36.29
65378;SHT31;51982;51.042;13.806;2022-07-18T14:54:30;29.82;36.11
65378;SHT31;51982;51.042;13.806;2022-07-18T14:56:55;29.84;36.14
65378;SHT31;51982;51.042;13.806;2022-07-18T14:59:22;29.92;36.12
65378;SHT31;51982;51.042;13.806;2022-07-18T15:01:47;29.91;35.85
65378;SHT31;51982;51.042;13.806;2022-07-18T15:04:13;29.88;35.82
65378;SHT31;51982;51.042;13.806;2022-07-18T15:06:38;29.89;35.88
65378;SHT31;51982;51.042;13.806;2022-07-18T15:09:05;29.91;36.13
65378;SHT31;51982;51.042;13.806;2022-07-18T15:11:32;29.84;35.86
65378;SHT31;51982;51.042;13.806;2022-07-18T15:13:58;29.85;36.07
65378;SHT31;51982;51.042;13.806;2022-07-18T15:16:23;29.87;36.16
65378;SHT31;51982;51.042;13.806;2022-07-18T15:18:48;29.82;36.05
65378;SHT31;51982;51.042;13.806;2022-07-18T15:21:14;29.77;36.21
65378;SHT31;51982;51.042;13.806;2022-07-18T15:23:39;29.81;36.36
65378;SHT31;51982;51.042;13.806;2022-07-18T15:26:05;29.74;35.92
65378;SHT31;51982;51.042;13.806;2022-07-18T15:28:30;29.71;36.05
65378;SHT31;51982;51.042;13.806;2022-07-18T15:30:55;29.71;36.08
65378;SHT31;51982;51.042;13.806;2022-07-18T15:33:21;29.63;35.99
65378;SHT31;51982;51.042;13.806;2022-07-18T15:35:49;29.64;35.99
65378;SHT31;51982;51.042;13.806;2022-07-18T15:38:14;29.64;35.91
65378;SHT31;51982;51.042;13.806;2022-07-18T15:40:40;29.74;36.14
65378;SHT31;51982;51.042;13.806;2022-07-18T15:43:05;29.84;35.97
65378;SHT31;51982;51.042;13.806;2022-07-18T15:45:30;29.81;35.81
65378;SHT31;51982;51.042;13.806;2022-07-18T15:47:56;29.87;35.80
65378;SHT31;51982;51.042;13.806;2022-07-18T15:50:21;29.91;35.86
65378;SHT31;51982;51.042;13.806;2022-07-18T15:52:49;29.94;35.96
65378;SHT31;51982;51.042;13.806;2022-07-18T15:55:15;30.00;36.00
65378;SHT31;51982;51.042;13.806;2022-07-18T15:57:40;29.94;35.97
65378;SHT31;51982;51.042;13.806;2022-07-18T16:00:09;29.94;35.92
65378;SHT31;51982;51.042;13.806;2022-07-18T16:02:35;29.88;36.10
65378;SHT31;51982;51.042;13.806;2022-07-18T16:05:00;29.80;36.15
65378;SHT31;51982;51.042;13.806;2022-07-18T16:07:25;29.74;36.07
65378;SHT31;51982;51.042;13.806;2022-07-18T16:09:51;29.70;36.29
65378;SHT31;51982;51.042;13.806;2022-07-18T16:12:17;29.58;36.40
65378;SHT31;51982;51.042;13.806;2022-07-18T16:14:42;29.49;36.47
65378;SHT31;51982;51.042;13.806;2022-07-18T16:17:07;29.40;36.43